createdAt,value
2023-04-02T05:38:51.820Z,0.83
2023-04-02T05:41:18.247Z,0.67
2023-04-02T05:43:44.630Z,0.64
2023-04-02T05:46:11.039Z,0.87
2023-04-02T05:48:37.700Z,0.59
2023-04-02T05:51:04.132Z,0.63
2023-04-02T05:53:30.518Z,0.74
2023-04-02T05:55:59.375Z,0.78
2023-04-02T06:00:55.414Z,0.83
2023-04-02T06:03:21.950Z,0.76
2023-04-02T06:05:49.811Z,0.76
2023-04-02T06:08:16.145Z,0.75
2023-04-02T06:10:42.473Z,0.67
2023-04-02T06:13:09.183Z,0.67
2023-04-02T06:15:38.863Z,0.54
2023-04-02T06:18:05.412Z,0.65
2023-04-02T06:20:31.925Z,0.62
2023-04-02T06:22:58.322Z,0.63
2023-04-02T06:25:24.645Z,0.58
2023-04-02T06:27:53.694Z,0.54
2023-04-02T06:30:22.511Z,0.63
2023-04-02T06:32:49.195Z,0.58
2023-04-02T06:35:15.602Z,0.58
2023-04-02T06:37:41.998Z,0.59
2023-04-02T06:40:09.237Z,0.67
2023-04-02T06:42:35.717Z,0.61
2023-04-02T06:45:03.836Z,0.52
2023-04-02T06:47:30.222Z,0.53
2023-04-02T06:49:56.688Z,0.58
2023-04-02T06:52:23.114Z,0.62
2023-04-02T06:54:49.558Z,0.60
2023-04-02T06:57:16.139Z,0.60
2023-04-02T06:59:42.709Z,0.62
2023-04-02T07:02:09.105Z,0.56
2023-04-02T07:04:37.913Z,0.60
2023-04-02T07:09:45.629Z,0.54
2023-04-02T07:12:12.505Z,0.70
2023-04-02T07:14:38.878Z,0.54
2023-04-02T07:17:07.380Z,0.57
2023-04-02T07:19:33.756Z,0.60
2023-04-02T07:22:01.224Z,0.59
2023-04-02T07:24:27.654Z,0.77
2023-04-02T07:26:54.170Z,0.60
2023-04-02T07:29:20.637Z,0.67
2023-04-02T07:31:47.344Z,0.77
2023-04-02T07:34:15.952Z,0.65
2023-04-02T07:36:42.381Z,0.71
2023-04-02T07:39:08.776Z,0.67
2023-04-02T07:41:35.339Z,0.67
2023-04-02T07:44:01.819Z,0.80
2023-04-02T07:46:28.297Z,0.85
2023-04-02T07:48:54.678Z,0.71
2023-04-02T07:51:21.062Z,0.87
2023-04-02T07:53:47.503Z,0.82
2023-04-02T07:56:13.906Z,1.13
2023-04-02T07:58:40.394Z,1.42
2023-04-02T08:01:06.867Z,1.12
2023-04-02T08:03:33.716Z,0.90
2023-04-02T08:06:00.404Z,0.83
2023-04-02T08:08:29.068Z,0.99
2023-04-02T08:21:38.333Z,0.62
2023-04-02T08:24:05.233Z,0.61
2023-04-02T08:26:31.842Z,0.48
2023-04-02T08:28:58.372Z,0.57
2023-04-02T08:31:25.238Z,0.52
2023-04-02T08:33:51.785Z,0.51
2023-04-02T08:36:23.588Z,0.74
2023-04-02T08:38:50.055Z,0.60
2023-04-02T08:41:16.672Z,0.59
2023-04-02T08:43:43.236Z,0.53
2023-04-02T08:46:09.837Z,0.33
2023-04-02T08:48:36.282Z,0.38
2023-04-02T08:51:02.706Z,0.89
2023-04-02T08:53:29.143Z,0.56
2023-04-02T08:55:55.518Z,0.57
2023-04-02T08:58:24.230Z,0.31
2023-04-02T09:00:50.637Z,0.33
2023-04-02T09:03:18.151Z,0.35
2023-04-02T13:19:43.326Z,0.21
2023-04-02T13:22:09.957Z,0.16
2023-04-02T13:24:36.525Z,0.19
2023-04-02T13:27:03.028Z,0.22
2023-04-02T13:29:29.410Z,0.26
2023-04-02T13:31:55.928Z,0.26
2023-04-02T13:34:23.458Z,0.37
2023-04-02T13:36:49.822Z,0.32
2023-04-02T13:41:56.464Z,0.18
2023-04-02T13:44:22.920Z,0.21
2023-04-02T13:46:49.552Z,0.18
2023-04-02T13:49:16.013Z,0.26
2023-04-02T13:51:42.552Z,0.26
2023-04-02T13:54:09.040Z,0.16
2023-04-02T13:56:35.526Z,0.19
2023-04-02T13:59:01.987Z,0.18
2023-04-02T14:01:28.364Z,0.14
2023-04-02T14:03:54.860Z,0.17
2023-04-02T14:06:22.415Z,0.16
2023-04-02T14:08:48.834Z,0.15
2023-04-02T14:11:15.424Z,0.16
2023-04-02T14:13:41.918Z,0.16
2023-04-02T14:16:10.578Z,0.18
2023-04-02T14:18:37.021Z,0.18
2023-04-02T14:21:03.427Z,0.16
2023-04-02T14:23:29.929Z,0.18
2023-04-02T14:25:56.545Z,0.15
2023-04-02T14:28:22.907Z,0.19
2023-04-02T14:30:49.288Z,0.20
2023-04-02T14:33:15.890Z,0.17
2023-04-02T14:35:42.492Z,0.14
2023-04-02T14:38:08.913Z,0.16
2023-04-02T14:40:35.520Z,0.18
2023-04-02T14:43:02.084Z,0.09
2023-04-02T14:45:28.639Z,0.13
2023-04-02T14:47:55.166Z,0.20
2023-04-02T14:50:21.645Z,0.36
2023-04-02T14:52:48.143Z,0.20
2023-04-02T14:55:14.505Z,0.18
2023-04-02T14:57:40.912Z,0.15
2023-04-02T15:00:07.407Z,0.25
2023-04-02T15:02:33.891Z,0.37
2023-04-02T15:05:01.548Z,0.31
2023-04-02T15:07:28.351Z,0.36
2023-04-02T15:09:55.555Z,0.26
2023-04-02T15:12:22.124Z,0.17
2023-04-02T15:14:50.153Z,0.23
2023-04-02T15:17:16.952Z,0.20
2023-04-02T15:19:43.408Z,0.36
2023-04-02T15:22:10.043Z,0.27
2023-04-02T15:24:36.624Z,0.20
2023-04-02T15:27:05.365Z,0.30
2023-04-02T15:29:35.843Z,0.21
2023-04-02T15:32:02.313Z,0.23
2023-04-02T15:34:28.782Z,0.24
2023-04-02T15:36:55.888Z,0.32
2023-04-02T15:39:22.328Z,0.26
2023-04-02T15:41:49.749Z,0.27
2023-04-02T15:44:16.579Z,0.27
2023-04-02T15:46:43.226Z,0.24
2023-04-02T15:49:10.080Z,0.34
2023-04-02T15:51:36.506Z,0.35
2023-04-02T15:54:04.219Z,0.29
2023-04-02T15:56:30.718Z,0.32
2023-04-02T15:58:57.273Z,0.38
2023-04-02T16:01:23.934Z,0.76
2023-04-02T16:03:51.242Z,0.45
2023-04-02T16:06:18.030Z,0.38
2023-04-02T16:08:44.415Z,0.48
2023-04-02T16:11:10.849Z,0.56
2023-04-02T16:13:41.542Z,0.46
2023-04-02T16:16:09.012Z,0.31
2023-04-02T16:18:35.720Z,0.32
2023-04-02T16:21:02.183Z,0.37
2023-04-02T16:23:29.147Z,0.40
2023-04-02T16:25:57.783Z,0.32
2023-04-02T16:28:24.336Z,0.37
2023-04-02T16:30:51.390Z,0.38
2023-04-02T16:33:17.763Z,0.44
2023-04-02T16:35:44.660Z,0.43
2023-04-02T16:38:12.115Z,0.54
2023-04-02T16:40:39.233Z,0.53
2023-04-02T16:43:05.567Z,0.54
2023-04-02T16:45:32.073Z,0.40
2023-04-02T16:47:58.717Z,0.49
2023-04-02T16:50:25.948Z,0.41
2023-04-02T16:52:53.192Z,0.43
2023-04-02T16:55:19.910Z,0.50
2023-04-02T16:57:46.628Z,0.54
2023-04-02T17:00:13.031Z,0.51
2023-04-02T17:02:39.641Z,0.57
2023-04-02T17:05:08.535Z,0.53
2023-04-02T17:07:35.354Z,0.56
2023-04-02T17:10:02.383Z,0.58
2023-04-02T17:12:28.869Z,0.50
2023-04-02T17:14:55.445Z,0.72
2023-04-02T17:17:21.972Z,0.82
2023-04-02T17:20:04.897Z,0.72
2023-04-02T17:22:32.003Z,0.85
2023-04-02T17:24:58.928Z,0.88
2023-04-02T17:27:26.472Z,0.87
2023-04-02T17:29:58.421Z,0.94
2023-04-02T17:32:25.185Z,0.88
2023-04-02T17:34:54.802Z,1.07
2023-04-02T17:37:21.333Z,0.98
2023-04-02T17:39:48.108Z,0.83
2023-04-02T17:42:14.616Z,0.96
2023-04-02T17:44:40.966Z,0.77
2023-04-02T17:47:08.994Z,0.94
2023-04-02T17:49:35.685Z,1.07
2023-04-02T17:52:02.270Z,1.02
2023-04-02T17:54:29.041Z,0.92
2023-04-02T17:56:57.976Z,0.83
2023-04-02T17:59:24.657Z,0.94
2023-04-02T18:01:51.167Z,0.76
2023-04-02T18:04:18.167Z,0.75
2023-04-02T18:06:44.657Z,0.83
2023-04-02T18:09:11.196Z,0.92
2023-04-02T18:11:40.511Z,1.00
2023-04-02T18:14:07.277Z,0.68
2023-04-02T18:16:33.951Z,0.80
2023-04-02T18:19:01.269Z,0.77
2023-04-02T18:21:27.753Z,0.82
2023-04-02T18:23:54.256Z,0.85
2023-04-02T18:26:21.221Z,0.92
2023-04-02T18:28:49.042Z,0.81
2023-04-02T18:31:15.650Z,0.79
2023-04-02T18:33:42.535Z,1.18
2023-04-02T18:36:09.303Z,1.03
2023-04-02T18:38:35.992Z,0.99
2023-04-02T18:41:03.202Z,0.76
2023-04-02T18:43:30.805Z,0.94
2023-04-02T18:45:57.631Z,1.08
2023-04-02T18:48:24.259Z,0.90
2023-04-02T18:50:50.824Z,0.84
2023-04-02T18:53:18.212Z,0.81
2023-04-02T18:55:45.020Z,0.82
2023-04-02T18:58:12.385Z,0.76
2023-04-02T19:00:39.391Z,0.70
2023-04-02T19:03:05.855Z,0.81
2023-04-02T19:05:33.187Z,0.70
2023-04-02T19:07:59.599Z,0.95
2023-04-02T19:10:26.078Z,0.97
2023-04-02T19:12:52.752Z,0.80
2023-04-02T19:15:19.203Z,0.80
2023-04-02T19:17:45.970Z,0.75
2023-04-02T19:20:21.415Z,0.80
2023-04-02T19:22:56.380Z,0.97
2023-04-02T19:25:24.253Z,0.90
2023-04-02T19:27:52.639Z,1.08
2023-04-02T19:30:19.121Z,1.40
2023-04-02T19:32:45.659Z,1.13
2023-04-02T19:35:12.637Z,1.05
2023-04-02T19:37:39.068Z,1.10
2023-04-02T19:40:06.010Z,1.11
2023-04-02T19:42:35.120Z,1.25
2023-04-02T19:45:01.521Z,1.48
2023-04-02T19:47:30.192Z,1.20
2023-04-02T19:49:56.818Z,1.55
2023-04-02T19:52:23.495Z,1.57
2023-04-02T19:54:50.140Z,2.17
2023-04-02T19:57:16.821Z,1.64
2023-04-02T19:59:44.734Z,1.25
2023-04-02T20:02:12.312Z,1.31
2023-04-02T20:04:38.815Z,1.22
2023-04-02T20:07:05.365Z,1.32
2023-04-02T20:09:33.323Z,1.37
2023-04-02T20:12:00.125Z,1.78
2023-04-02T20:14:26.666Z,1.58
2023-04-02T20:16:53.254Z,1.85
2023-04-02T20:19:21.139Z,2.13
2023-04-02T20:21:47.638Z,1.86
2023-04-02T20:24:14.452Z,2.10
2023-04-02T20:26:42.389Z,2.04
2023-04-02T20:29:08.953Z,2.19
2023-04-02T20:31:40.121Z,1.87
2023-04-02T20:34:07.574Z,1.85
2023-04-02T20:36:35.947Z,1.85
2023-04-02T20:39:03.677Z,1.97
2023-04-02T20:41:30.857Z,1.73
2023-04-02T20:43:57.287Z,1.75
2023-04-02T20:46:23.825Z,1.70
2023-04-02T20:48:51.353Z,1.71
2023-04-02T20:53:59.394Z,1.71
2023-04-02T20:56:26.819Z,1.61
